createdAt,value
2019-03-22T00:00:15.923Z,1026.30
2019-03-22T00:01:15.945Z,1026.35
2019-03-22T00:02:15.959Z,1026.32
2019-03-22T00:03:15.969Z,1026.31
2019-03-22T00:04:15.979Z,1026.29
2019-03-22T00:05:15.995Z,1026.29
2019-03-22T00:06:16.005Z,1026.25
2019-03-22T00:07:16.021Z,1026.26
2019-03-22T00:08:16.096Z,1026.25
2019-03-22T00:09:16.701Z,1026.23
2019-03-22T00:10:16.072Z,1026.24
2019-03-22T00:11:16.087Z,1026.23
2019-03-22T00:12:16.099Z,1026.24
2019-03-22T00:13:16.111Z,1026.21
2019-03-22T00:14:16.183Z,1026.21
2019-03-22T00:15:16.145Z,1026.19
2019-03-22T00:16:16.157Z,1026.20
2019-03-22T00:17:16.164Z,1026.22
2019-03-22T00:18:16.207Z,1026.20
2019-03-22T00:19:16.195Z,1026.23
2019-03-22T00:20:16.221Z,1026.22
2019-03-22T00:21:16.241Z,1026.23
2019-03-22T00:22:16.241Z,1026.31
2019-03-22T00:23:16.253Z,1026.30
2019-03-22T00:24:16.271Z,1026.32
2019-03-22T00:25:16.281Z,1026.30
2019-03-22T00:26:16.298Z,1026.25
2019-03-22T00:27:16.996Z,1026.26
2019-03-22T00:28:16.326Z,1026.21
2019-03-22T00:29:16.343Z,1026.19
2019-03-22T00:30:16.355Z,1026.17
2019-03-22T00:31:16.369Z,1026.20
2019-03-22T00:32:16.377Z,1026.16
2019-03-22T00:33:16.401Z,1026.21
2019-03-22T00:34:16.413Z,1026.23
2019-03-22T00:35:16.424Z,1026.19
2019-03-22T00:36:16.441Z,1026.19
2019-03-22T00:37:16.458Z,1026.18
2019-03-22T00:38:16.472Z,1026.22
2019-03-22T00:39:16.489Z,1026.21
2019-03-22T00:40:16.494Z,1026.17
2019-03-22T00:41:16.511Z,1026.17
2019-03-22T00:42:16.523Z,1026.21
2019-03-22T00:43:16.541Z,1026.15
2019-03-22T00:44:16.570Z,1026.17
2019-03-22T00:45:16.568Z,1026.19
2019-03-22T00:46:16.579Z,1026.20
2019-03-22T00:47:16.593Z,1026.22
2019-03-22T00:48:16.605Z,1026.26
2019-03-22T00:49:16.615Z,1026.17
2019-03-22T00:50:16.635Z,1026.22
2019-03-22T00:51:16.649Z,1026.21
2019-03-22T00:52:16.665Z,1026.24
2019-03-22T00:53:16.675Z,1026.23
2019-03-22T00:54:16.691Z,1026.21
2019-03-22T00:55:16.707Z,1026.21
2019-03-22T00:56:16.717Z,1026.25
2019-03-22T00:57:27.682Z,1026.30
2019-03-22T00:58:16.747Z,1026.29
2019-03-22T00:59:16.759Z,1026.31
2019-03-22T01:00:16.783Z,1026.29
2019-03-22T01:01:16.791Z,1026.30
2019-03-22T01:02:16.803Z,1026.33
2019-03-22T01:03:16.827Z,1026.27
2019-03-22T01:04:16.833Z,1026.28
2019-03-22T01:05:16.845Z,1026.29
2019-03-22T01:06:16.863Z,1026.27
2019-03-22T01:07:16.871Z,1026.28
2019-03-22T01:08:16.884Z,1026.31
2019-03-22T01:09:16.902Z,1026.33
2019-03-22T01:10:16.917Z,1026.27
2019-03-22T01:11:16.925Z,1026.26
2019-03-22T01:12:16.937Z,1026.23
2019-03-22T01:13:16.960Z,1026.26
2019-03-22T01:14:16.969Z,1026.20
2019-03-22T01:15:16.985Z,1026.16
2019-03-22T01:16:16.999Z,1026.20
2019-03-22T01:17:17.012Z,1026.21
2019-03-22T01:18:17.031Z,1026.13
2019-03-22T01:19:17.039Z,1026.17
2019-03-22T01:20:17.055Z,1026.15
2019-03-22T01:21:17.077Z,1026.17
2019-03-22T01:22:17.076Z,1026.15
2019-03-22T01:23:17.095Z,1026.16
2019-03-22T01:24:17.110Z,1026.13
2019-03-22T01:25:17.134Z,1026.09
2019-03-22T01:26:17.151Z,1026.06
2019-03-22T01:27:17.148Z,1026.02
2019-03-22T01:28:17.164Z,1026.03
2019-03-22T01:29:17.178Z,1026.06
2019-03-22T01:30:17.186Z,1026.04
2019-03-22T01:31:17.205Z,1026.05
2019-03-22T01:32:17.218Z,1026.05
2019-03-22T01:33:17.232Z,1026.00
2019-03-22T01:34:17.246Z,1025.99
2019-03-22T01:35:17.261Z,1026.00
2019-03-22T01:36:17.274Z,1025.99
2019-03-22T01:37:17.284Z,1025.98
2019-03-22T01:38:17.318Z,1025.96
2019-03-22T01:39:17.324Z,1025.97
2019-03-22T01:40:17.340Z,1025.97
2019-03-22T01:41:17.342Z,1025.96
2019-03-22T01:42:17.356Z,1025.99
2019-03-22T01:43:17.370Z,1025.99
2019-03-22T01:44:17.380Z,1025.99
2019-03-22T01:45:17.396Z,1025.98
2019-03-22T01:46:17.409Z,1025.96
2019-03-22T01:47:17.420Z,1025.99
2019-03-22T01:48:17.441Z,1026.01
2019-03-22T01:49:17.445Z,1026.01
2019-03-22T01:50:17.454Z,1025.99
2019-03-22T01:51:17.482Z,1025.97
2019-03-22T01:52:17.492Z,1026.02
2019-03-22T01:53:17.509Z,1026.02
2019-03-22T01:54:17.518Z,1026.04
2019-03-22T01:55:17.524Z,1026.04
2019-03-22T01:56:17.536Z,1026.05
2019-03-22T01:57:17.590Z,1026.02
2019-03-22T01:58:17.572Z,1026.00
2019-03-22T01:59:17.598Z,1026.05
2019-03-22T02:00:17.601Z,1026.04
2019-03-22T02:01:17.622Z,1026.09
2019-03-22T02:02:17.624Z,1026.02
2019-03-22T02:03:17.638Z,1026.04
2019-03-22T02:04:17.659Z,1026.03
2019-03-22T02:05:17.737Z,1026.02
2019-03-22T02:06:17.680Z,1026.05
2019-03-22T02:07:17.716Z,1026.06
2019-03-22T02:08:17.710Z,1026.02
2019-03-22T02:09:17.724Z,1026.05
2019-03-22T02:10:17.736Z,1026.03
2019-03-22T02:11:17.750Z,1026.05
2019-03-22T02:12:17.770Z,1026.02
2019-03-22T02:13:17.784Z,1026.04
2019-03-22T02:14:17.784Z,1026.02
2019-03-22T02:15:17.806Z,1025.99
2019-03-22T02:16:17.824Z,1025.99
2019-03-22T02:17:17.838Z,1025.98
2019-03-22T02:18:17.844Z,1025.98
2019-03-22T02:19:17.864Z,1025.97
2019-03-22T02:20:17.872Z,1025.99
2019-03-22T02:21:17.880Z,1026.00
2019-03-22T02:22:17.884Z,1025.98
2019-03-22T02:23:17.919Z,1025.99
2019-03-22T02:24:17.930Z,1025.98
2019-03-22T02:25:17.927Z,1025.95
2019-03-22T02:26:17.954Z,1025.94
2019-03-22T02:27:17.966Z,1025.89
2019-03-22T02:28:17.977Z,1025.88
2019-03-22T02:29:17.991Z,1025.85
2019-03-22T02:30:18.030Z,1025.88
2019-03-22T02:31:18.026Z,1025.86
2019-03-22T02:32:18.035Z,1025.84
2019-03-22T02:33:18.047Z,1025.87
2019-03-22T02:34:18.061Z,1025.90
2019-03-22T02:35:28.160Z,1025.85
2019-03-22T02:36:18.078Z,1025.82
2019-03-22T02:37:18.101Z,1025.82
2019-03-22T02:38:18.724Z,1025.84
2019-03-22T02:39:18.184Z,1025.84
2019-03-22T02:40:18.140Z,1025.80
2019-03-22T02:41:18.154Z,1025.80
2019-03-22T02:42:18.188Z,1025.77
2019-03-22T02:43:18.188Z,1025.77
2019-03-22T02:44:18.286Z,1025.76
2019-03-22T02:45:18.222Z,1025.77
2019-03-22T02:46:18.253Z,1025.74
2019-03-22T02:47:18.249Z,1025.72
2019-03-22T02:48:18.306Z,1025.77
2019-03-22T02:49:18.261Z,1025.75
2019-03-22T02:50:19.660Z,1025.72
2019-03-22T02:51:18.296Z,1025.75
2019-03-22T02:52:18.307Z,1025.73
2019-03-22T02:53:18.315Z,1025.69
2019-03-22T02:54:18.325Z,1025.73
2019-03-22T02:55:18.348Z,1025.73
2019-03-22T02:56:18.355Z,1025.71
2019-03-22T02:57:18.368Z,1025.74
2019-03-22T02:58:20.870Z,1025.77
2019-03-22T02:59:18.399Z,1025.77
2019-03-22T03:00:18.425Z,1025.74
2019-03-22T03:01:18.423Z,1025.70
2019-03-22T03:02:18.434Z,1025.69
2019-03-22T03:03:18.454Z,1025.73
2019-03-22T03:04:18.459Z,1025.68
2019-03-22T03:05:18.476Z,1025.69
2019-03-22T03:06:18.489Z,1025.73
2019-03-22T03:07:18.506Z,1025.70
2019-03-22T03:08:18.511Z,1025.75
2019-03-22T03:09:18.526Z,1025.71
2019-03-22T03:10:18.553Z,1025.74
2019-03-22T03:11:18.552Z,1025.72
2019-03-22T03:12:18.574Z,1025.72
2019-03-22T03:13:18.580Z,1025.70
2019-03-22T03:14:18.591Z,1025.71
2019-03-22T03:15:18.603Z,1025.71
2019-03-22T03:16:18.642Z,1025.69
2019-03-22T03:17:18.628Z,1025.70
2019-03-22T03:18:18.642Z,1025.69
2019-03-22T03:19:18.660Z,1025.67
2019-03-22T03:20:18.682Z,1025.70
2019-03-22T03:21:18.685Z,1025.68
2019-03-22T03:22:18.708Z,1025.67
2019-03-22T03:23:18.710Z,1025.67
2019-03-22T03:24:18.719Z,1025.69
2019-03-22T03:25:18.746Z,1025.63
2019-03-22T03:26:18.753Z,1025.66
2019-03-22T03:27:18.765Z,1025.63
2019-03-22T03:28:18.775Z,1025.70
2019-03-22T03:29:18.787Z,1025.67
2019-03-22T03:30:18.961Z,1025.68
2019-03-22T03:31:18.817Z,1025.60
2019-03-22T03:32:18.962Z,1025.61
2019-03-22T03:33:18.842Z,1025.59
2019-03-22T03:34:18.857Z,1025.59
2019-03-22T03:35:18.921Z,1025.54
2019-03-22T03:36:18.899Z,1025.54
2019-03-22T03:37:18.893Z,1025.62
2019-03-22T03:38:18.910Z,1025.60
2019-03-22T03:39:18.917Z,1025.56
2019-03-22T03:40:18.931Z,1025.55
2019-03-22T03:41:18.952Z,1025.58
2019-03-22T03:42:18.955Z,1025.55
2019-03-22T03:43:18.981Z,1025.53
2019-03-22T03:44:18.988Z,1025.49
2019-03-22T03:45:18.997Z,1025.50
2019-03-22T03:46:19.011Z,1025.48
2019-03-22T03:47:19.028Z,1025.50
2019-03-22T03:48:19.033Z,1025.50
2019-03-22T03:49:19.053Z,1025.47
2019-03-22T03:50:19.063Z,1025.48
2019-03-22T03:51:19.098Z,1025.49
2019-03-22T03:52:19.086Z,1025.52
2019-03-22T03:53:19.100Z,1025.51
2019-03-22T03:54:19.116Z,1025.49
2019-03-22T03:55:19.132Z,1025.55
2019-03-22T03:56:19.138Z,1025.51
2019-03-22T03:57:19.149Z,1025.53
2019-03-22T03:58:19.165Z,1025.50
2019-03-22T03:59:19.179Z,1025.52
2019-03-22T04:00:19.196Z,1025.50
2019-03-22T04:01:19.201Z,1025.53
2019-03-22T04:02:19.216Z,1025.55
2019-03-22T04:03:19.231Z,1025.54
2019-03-22T04:04:19.244Z,1025.59
2019-03-22T04:05:19.255Z,1025.60
2019-03-22T04:06:19.264Z,1025.60
2019-03-22T04:07:19.278Z,1025.59
2019-03-22T04:08:19.288Z,1025.60
2019-03-22T04:09:19.301Z,1025.62
2019-03-22T04:10:19.313Z,1025.62
2019-03-22T04:11:19.331Z,1025.66
2019-03-22T04:12:19.339Z,1025.57
2019-03-22T04:13:19.361Z,1025.60
2019-03-22T04:14:19.366Z,1025.59
2019-03-22T04:15:19.377Z,1025.65
2019-03-22T04:16:19.397Z,1025.63
2019-03-22T04:17:19.420Z,1025.64
2019-03-22T04:18:19.413Z,1025.62
2019-03-22T04:19:19.433Z,1025.58
2019-03-22T04:20:19.450Z,1025.63
2019-03-22T04:21:19.456Z,1025.61
2019-03-22T04:22:19.467Z,1025.62
2019-03-22T04:23:19.483Z,1025.59
2019-03-22T04:24:19.499Z,1025.59
2019-03-22T04:25:19.557Z,1025.62
2019-03-22T04:26:19.521Z,1025.58
2019-03-22T04:27:19.530Z,1025.60
2019-03-22T04:28:19.546Z,1025.60
2019-03-22T04:29:19.563Z,1025.65
2019-03-22T04:30:19.567Z,1025.67
2019-03-22T04:31:19.592Z,1025.65
2019-03-22T04:32:19.598Z,1025.63
2019-03-22T04:33:19.613Z,1025.64
2019-03-22T04:34:19.622Z,1025.66
2019-03-22T04:35:19.625Z,1025.62
2019-03-22T04:36:19.647Z,1025.65
2019-03-22T04:37:19.650Z,1025.62
2019-03-22T04:38:19.671Z,1025.62
2019-03-22T04:39:19.799Z,1025.64
2019-03-22T04:40:19.700Z,1025.61
2019-03-22T04:41:19.715Z,1025.59
2019-03-22T04:42:19.724Z,1025.65
2019-03-22T04:43:19.735Z,1025.62
2019-03-22T04:44:19.757Z,1025.62
2019-03-22T04:45:19.773Z,1025.63
2019-03-22T04:46:19.775Z,1025.63
2019-03-22T04:47:19.798Z,1025.66
2019-03-22T04:48:19.798Z,1025.66
2019-03-22T04:49:19.823Z,1025.62
2019-03-22T04:50:19.848Z,1025.63
2019-03-22T04:51:19.840Z,1025.63
2019-03-22T04:52:19.844Z,1025.64
2019-03-22T04:53:21.887Z,1025.60
2019-03-22T04:54:19.875Z,1025.58
2019-03-22T04:55:19.896Z,1025.59
2019-03-22T04:56:19.902Z,1025.60
2019-03-22T04:57:19.915Z,1025.61
2019-03-22T04:58:19.924Z,1025.60
2019-03-22T04:59:19.940Z,1025.58
2019-03-22T05:00:19.945Z,1025.56
2019-03-22T05:01:19.964Z,1025.57
2019-03-22T05:02:19.979Z,1025.57
2019-03-22T05:03:19.991Z,1025.57
2019-03-22T05:04:19.998Z,1025.59
2019-03-22T05:05:20.005Z,1025.57
2019-03-22T05:06:20.027Z,1025.55
2019-03-22T05:07:20.042Z,1025.59
2019-03-22T05:08:20.049Z,1025.59
2019-03-22T05:09:20.061Z,1025.60
2019-03-22T05:10:20.075Z,1025.58
2019-03-22T05:11:20.084Z,1025.60
2019-03-22T05:12:20.097Z,1025.56
2019-03-22T05:13:20.113Z,1025.56
2019-03-22T05:14:20.181Z,1025.59
2019-03-22T05:15:20.144Z,1025.60
2019-03-22T05:16:20.155Z,1025.63
2019-03-22T05:17:20.161Z,1025.63
2019-03-22T05:18:20.167Z,1025.62
2019-03-22T05:19:20.194Z,1025.65
2019-03-22T05:20:20.195Z,1025.63
2019-03-22T05:21:20.215Z,1025.71
2019-03-22T05:22:20.250Z,1025.65
2019-03-22T05:23:20.239Z,1025.72
2019-03-22T05:24:20.265Z,1025.67
2019-03-22T05:25:20.259Z,1025.70
2019-03-22T05:26:20.331Z,1025.70
2019-03-22T05:27:20.287Z,1025.71
2019-03-22T05:28:20.299Z,1025.72
2019-03-22T05:29:30.286Z,1025.74
2019-03-22T05:30:20.397Z,1025.71
2019-03-22T05:31:20.342Z,1025.73
2019-03-22T05:32:20.358Z,1025.71
2019-03-22T05:33:20.371Z,1025.75
2019-03-22T05:34:20.397Z,1025.74
2019-03-22T05:35:20.399Z,1025.74
2019-03-22T05:36:20.403Z,1025.75
2019-03-22T05:37:20.413Z,1025.73
2019-03-22T05:38:20.439Z,1025.72
2019-03-22T05:39:20.435Z,1025.73
2019-03-22T05:40:20.453Z,1025.65
2019-03-22T05:41:20.463Z,1025.63
2019-03-22T05:42:20.473Z,1025.62
2019-03-22T05:43:20.489Z,1025.58
2019-03-22T05:44:20.500Z,1025.55
2019-03-22T05:45:20.513Z,1025.61
2019-03-22T05:46:20.524Z,1025.56
2019-03-22T05:47:20.535Z,1025.56
2019-03-22T05:48:20.551Z,1025.59
2019-03-22T05:49:20.563Z,1025.59
2019-03-22T05:50:20.574Z,1025.58
2019-03-22T05:51:20.583Z,1025.60
2019-03-22T05:52:20.605Z,1025.56
2019-03-22T05:53:20.616Z,1025.59
2019-03-22T05:54:20.637Z,1025.56
2019-03-22T05:55:20.641Z,1025.58
2019-03-22T05:56:20.648Z,1025.58
2019-03-22T05:57:20.662Z,1025.59
2019-03-22T05:58:20.671Z,1025.60
2019-03-22T05:59:20.688Z,1025.58
2019-03-22T06:00:20.696Z,1025.59
2019-03-22T06:01:20.708Z,1025.59
2019-03-22T06:02:20.713Z,1025.55
2019-03-22T06:03:20.739Z,1025.60
2019-03-22T06:04:20.747Z,1025.59
2019-03-22T06:05:20.764Z,1025.62
2019-03-22T06:06:20.777Z,1025.59
2019-03-22T06:07:20.786Z,1025.62
2019-03-22T06:08:20.814Z,1025.64
2019-03-22T06:09:20.806Z,1025.69
2019-03-22T06:10:20.819Z,1025.69
2019-03-22T06:11:20.829Z,1025.62
2019-03-22T06:12:20.844Z,1025.70
2019-03-22T06:13:20.864Z,1025.72
2019-03-22T06:14:20.872Z,1025.66
2019-03-22T06:15:20.883Z,1025.68
2019-03-22T06:16:20.896Z,1025.71
2019-03-22T06:17:20.904Z,1025.73
2019-03-22T06:18:20.922Z,1025.76
2019-03-22T06:19:20.931Z,1025.78
2019-03-22T06:20:20.944Z,1025.80
2019-03-22T06:21:20.961Z,1025.84
2019-03-22T06:22:20.971Z,1025.81
2019-03-22T06:23:20.974Z,1025.83
2019-03-22T06:24:22.287Z,1025.80
2019-03-22T06:25:21.008Z,1025.80
2019-03-22T06:26:21.035Z,1025.81
2019-03-22T06:27:21.027Z,1025.80
2019-03-22T06:28:21.046Z,1025.82
2019-03-22T06:29:21.056Z,1025.79
2019-03-22T06:30:21.067Z,1025.81
2019-03-22T06:31:21.759Z,1025.82
2019-03-22T06:32:21.092Z,1025.80
2019-03-22T06:33:21.108Z,1025.82
2019-03-22T06:34:21.111Z,1025.82
2019-03-22T06:35:21.131Z,1025.80
2019-03-22T06:36:21.145Z,1025.79
2019-03-22T06:37:21.157Z,1025.81
2019-03-22T06:38:21.193Z,1025.83
2019-03-22T06:39:21.183Z,1025.81
2019-03-22T06:40:21.189Z,1025.81
2019-03-22T06:41:21.197Z,1025.78
2019-03-22T06:42:21.217Z,1025.82
2019-03-22T06:43:21.231Z,1025.83
2019-03-22T06:44:21.281Z,1025.83
2019-03-22T06:45:21.254Z,1025.79
2019-03-22T06:46:21.271Z,1025.85
2019-03-22T06:47:21.279Z,1025.84
2019-03-22T06:48:21.288Z,1025.84
2019-03-22T06:49:21.306Z,1025.83
2019-03-22T06:50:21.323Z,1025.88
2019-03-22T06:51:21.332Z,1025.91
2019-03-22T06:52:21.352Z,1025.95
2019-03-22T06:53:21.354Z,1025.94
2019-03-22T06:54:31.007Z,1025.94
2019-03-22T06:55:21.384Z,1025.98
2019-03-22T06:56:21.395Z,1025.93
2019-03-22T06:57:21.407Z,1025.92
2019-03-22T06:58:24.065Z,1025.95
2019-03-22T06:59:21.427Z,1026.00
2019-03-22T07:00:21.441Z,1025.99
2019-03-22T07:01:21.459Z,1025.92
2019-03-22T07:02:21.466Z,1025.97
2019-03-22T07:03:21.483Z,1026.01
2019-03-22T07:04:21.496Z,1025.99
2019-03-22T07:05:21.504Z,1025.98
2019-03-22T07:06:21.514Z,1026.01
2019-03-22T07:07:21.532Z,1025.96
2019-03-22T07:08:21.543Z,1025.98
2019-03-22T07:09:21.560Z,1026.00
2019-03-22T07:10:21.574Z,1025.95
2019-03-22T07:11:21.582Z,1025.98
2019-03-22T07:12:21.594Z,1025.95
2019-03-22T07:13:21.606Z,1026.00
2019-03-22T07:14:21.620Z,1026.03
2019-03-22T07:15:21.635Z,1026.04
2019-03-22T07:16:21.643Z,1026.04
2019-03-22T07:17:21.664Z,1026.03
2019-03-22T07:18:21.661Z,1026.02
2019-03-22T07:19:21.691Z,1026.04
2019-03-22T07:20:21.713Z,1026.04
2019-03-22T07:21:21.722Z,1026.09
2019-03-22T07:22:21.726Z,1026.11
2019-03-22T07:23:21.735Z,1026.10
2019-03-22T07:24:21.755Z,1026.12
2019-03-22T07:25:21.891Z,1026.08
2019-03-22T07:26:21.787Z,1026.10
2019-03-22T07:27:21.794Z,1026.11
2019-03-22T07:28:21.806Z,1026.10
2019-03-22T07:29:21.934Z,1026.12
2019-03-22T07:30:21.835Z,1026.12
2019-03-22T07:31:21.858Z,1026.13
2019-03-22T07:32:21.856Z,1026.11
2019-03-22T07:33:21.879Z,1026.14
2019-03-22T07:34:21.897Z,1026.13
2019-03-22T07:35:21.913Z,1026.14
2019-03-22T07:36:21.914Z,1026.17
2019-03-22T07:37:21.970Z,1026.16
2019-03-22T07:38:21.944Z,1026.16
2019-03-22T07:39:21.953Z,1026.13
2019-03-22T07:40:21.969Z,1026.15
2019-03-22T07:41:21.985Z,1026.12
2019-03-22T07:42:21.996Z,1026.12
2019-03-22T07:43:22.004Z,1026.14
2019-03-22T07:44:22.018Z,1026.15
2019-03-22T07:45:22.092Z,1026.12
2019-03-22T07:46:22.045Z,1026.12
2019-03-22T07:47:22.059Z,1026.16
2019-03-22T07:48:22.070Z,1026.10
2019-03-22T07:49:22.085Z,1026.11
2019-03-22T07:50:22.100Z,1026.13
2019-03-22T07:51:22.114Z,1026.16
2019-03-22T07:52:22.130Z,1026.11
2019-03-22T07:53:22.139Z,1026.14
2019-03-22T07:54:22.150Z,1026.12
2019-03-22T07:55:22.163Z,1026.11
2019-03-22T07:56:22.178Z,1026.14
2019-03-22T07:57:22.192Z,1026.14
2019-03-22T07:58:22.202Z,1026.13
2019-03-22T07:59:22.227Z,1026.14
2019-03-22T08:00:30.827Z,1026.15
2019-03-22T08:01:22.247Z,1026.11
2019-03-22T08:02:22.250Z,1026.10
2019-03-22T08:03:22.280Z,1026.13
2019-03-22T08:04:22.770Z,1026.15
2019-03-22T08:05:22.320Z,1026.17
2019-03-22T08:06:22.427Z,1026.16
2019-03-22T08:07:22.331Z,1026.14
2019-03-22T08:08:22.387Z,1026.13
2019-03-22T08:09:22.359Z,1026.21
2019-03-22T08:10:23.314Z,1026.15
2019-03-22T08:11:24.661Z,1026.14
2019-03-22T08:12:22.407Z,1026.17
2019-03-22T08:13:22.413Z,1026.12
2019-03-22T08:14:22.441Z,1026.12
2019-03-22T08:15:22.446Z,1026.11
2019-03-22T08:16:22.463Z,1026.16
2019-03-22T08:17:22.460Z,1026.14
2019-03-22T08:18:22.491Z,1026.15
2019-03-22T08:19:22.506Z,1026.17
2019-03-22T08:20:22.513Z,1026.13
2019-03-22T08:21:22.519Z,1026.15
2019-03-22T08:22:22.534Z,1026.08
2019-03-22T08:23:22.562Z,1026.11
2019-03-22T08:24:22.572Z,1026.09
2019-03-22T08:25:22.578Z,1026.07
2019-03-22T08:26:22.603Z,1026.04
2019-03-22T08:27:22.618Z,1026.09
2019-03-22T08:28:22.636Z,1026.07
2019-03-22T08:29:22.642Z,1026.11
2019-03-22T08:30:22.656Z,1026.12
2019-03-22T08:31:22.671Z,1026.09
2019-03-22T08:32:22.715Z,1026.13
2019-03-22T08:33:22.698Z,1026.10
2019-03-22T08:34:22.712Z,1026.11
2019-03-22T08:35:22.723Z,1026.10
2019-03-22T08:36:22.725Z,1026.09
2019-03-22T08:37:22.755Z,1026.08
2019-03-22T08:38:22.767Z,1026.09
2019-03-22T08:39:22.800Z,1026.05
2019-03-22T08:40:22.841Z,1026.07
2019-03-22T08:41:23.987Z,1026.06
2019-03-22T08:42:22.863Z,1026.06
2019-03-22T08:43:22.839Z,1026.09
2019-03-22T08:44:22.862Z,1026.03
2019-03-22T08:45:22.866Z,1026.01
2019-03-22T08:46:22.884Z,1026.01
2019-03-22T08:47:33.141Z,1026.03
2019-03-22T08:48:22.959Z,1025.99
2019-03-22T08:49:23.077Z,1026.00
2019-03-22T08:50:22.950Z,1026.00
2019-03-22T08:51:22.977Z,1026.01
2019-03-22T08:52:22.980Z,1026.03
2019-03-22T08:53:22.995Z,1026.03
2019-03-22T08:54:23.014Z,1026.04
2019-03-22T08:55:23.017Z,1026.04
2019-03-22T08:56:23.047Z,1026.06
2019-03-22T08:57:24.970Z,1026.02
2019-03-22T08:58:23.063Z,1025.99
2019-03-22T08:59:23.113Z,1026.04
2019-03-22T09:00:23.103Z,1026.07
2019-03-22T09:01:23.123Z,1026.04
2019-03-22T09:02:23.134Z,1026.00
2019-03-22T09:03:23.160Z,1025.96
2019-03-22T09:04:23.158Z,1026.00
2019-03-22T09:05:23.209Z,1025.99
2019-03-22T09:06:23.186Z,1025.98
2019-03-22T09:07:24.480Z,1025.99
2019-03-22T09:08:23.253Z,1025.98
2019-03-22T09:09:23.234Z,1025.98
2019-03-22T09:10:23.247Z,1025.93
2019-03-22T09:11:23.310Z,1025.96
2019-03-22T09:12:23.289Z,1025.93
2019-03-22T09:13:23.343Z,1025.88
2019-03-22T09:14:23.335Z,1025.94
2019-03-22T09:15:23.356Z,1025.91
2019-03-22T09:16:23.344Z,1025.89
2019-03-22T09:17:23.364Z,1025.90
2019-03-22T09:18:23.373Z,1025.88
2019-03-22T09:19:23.391Z,1025.92
2019-03-22T09:20:23.444Z,1025.93
2019-03-22T09:21:23.425Z,1025.89
2019-03-22T09:22:23.433Z,1025.93
2019-03-22T09:23:23.471Z,1025.91
2019-03-22T09:24:23.503Z,1025.92
2019-03-22T09:25:23.482Z,1025.91
2019-03-22T09:26:23.502Z,1025.89
2019-03-22T09:27:23.558Z,1025.84
2019-03-22T09:28:23.531Z,1025.83
2019-03-22T09:29:23.551Z,1025.85
2019-03-22T09:30:23.565Z,1025.80
2019-03-22T09:31:23.580Z,1025.80
2019-03-22T09:32:23.606Z,1025.82
2019-03-22T09:33:23.643Z,1025.79
2019-03-22T09:34:33.183Z,1025.78
2019-03-22T09:35:23.645Z,1025.79
2019-03-22T09:36:23.663Z,1025.78
2019-03-22T09:37:23.683Z,1025.73
2019-03-22T09:38:23.703Z,1025.72
2019-03-22T09:39:23.844Z,1025.74
2019-03-22T09:40:23.728Z,1025.70
2019-03-22T09:41:23.742Z,1025.71
2019-03-22T09:42:23.763Z,1025.70
2019-03-22T09:43:23.777Z,1025.73
2019-03-22T09:44:23.829Z,1025.74
2019-03-22T09:45:23.796Z,1025.74
2019-03-22T09:46:23.822Z,1025.75
2019-03-22T09:47:23.843Z,1025.77
2019-03-22T09:48:23.865Z,1025.71
2019-03-22T09:49:23.932Z,1025.71
2019-03-22T09:50:23.888Z,1025.74
2019-03-22T09:51:23.970Z,1025.68
2019-03-22T09:52:23.921Z,1025.71
2019-03-22T09:53:24.005Z,1025.70
2019-03-22T09:54:23.959Z,1025.72
2019-03-22T09:55:23.970Z,1025.74
2019-03-22T09:56:23.987Z,1025.73
2019-03-22T09:57:24.041Z,1025.74
2019-03-22T09:58:24.030Z,1025.71
2019-03-22T09:59:24.062Z,1026.00
2019-03-22T10:00:24.054Z,1026.32
2019-03-22T10:01:24.562Z,1026.22
2019-03-22T10:02:24.087Z,1026.11
2019-03-22T10:03:24.109Z,1026.00
2019-03-22T10:04:24.123Z,1026.03
2019-03-22T10:05:24.219Z,1026.05
2019-03-22T10:06:24.193Z,1026.07
2019-03-22T10:07:24.177Z,1026.09
2019-03-22T10:08:24.194Z,1026.19
2019-03-22T10:09:24.278Z,1026.21
2019-03-22T10:10:24.286Z,1026.22
2019-03-22T10:11:24.299Z,1026.26
2019-03-22T10:12:24.321Z,1026.22
2019-03-22T10:13:24.316Z,1026.15
2019-03-22T10:14:24.323Z,1026.03
2019-03-22T10:15:24.332Z,1026.24
2019-03-22T10:16:24.355Z,1026.28
2019-03-22T10:17:24.351Z,1026.28
2019-03-22T10:18:24.379Z,1026.24
2019-03-22T10:19:24.427Z,1026.16
2019-03-22T10:20:24.490Z,1025.96
2019-03-22T10:21:24.463Z,1026.10
2019-03-22T10:22:24.495Z,1026.15
2019-03-22T10:23:24.480Z,1026.20
2019-03-22T10:24:24.495Z,1026.28
2019-03-22T10:25:24.519Z,1026.17
2019-03-22T10:26:24.538Z,1026.17
2019-03-22T10:27:24.607Z,1026.16
2019-03-22T10:28:24.591Z,1026.16
2019-03-22T10:29:24.618Z,1026.00
2019-03-22T10:30:24.617Z,1026.13
2019-03-22T10:31:36.382Z,1026.04
2019-03-22T10:32:24.660Z,1025.98
2019-03-22T10:33:24.677Z,1026.00
2019-03-22T10:34:24.709Z,1025.96
2019-03-22T10:35:26.252Z,1025.92
2019-03-22T10:36:24.747Z,1025.96
2019-03-22T10:37:24.807Z,1025.96
2019-03-22T10:38:31.892Z,1025.97
2019-03-22T10:39:24.862Z,1025.91
2019-03-22T10:40:24.825Z,1025.88
2019-03-22T10:41:24.886Z,1025.83
2019-03-22T10:42:24.865Z,1025.90
2019-03-22T10:43:25.042Z,1025.78
2019-03-22T10:44:24.951Z,1025.72
2019-03-22T10:45:24.934Z,1025.61
2019-03-22T10:46:24.960Z,1025.62
2019-03-22T10:47:25.011Z,1025.56
2019-03-22T10:48:24.995Z,1025.43
2019-03-22T10:49:25.078Z,1025.53
2019-03-22T10:50:25.112Z,1025.47
2019-03-22T10:51:25.103Z,1025.46
2019-03-22T10:52:25.079Z,1025.49
2019-03-22T10:53:25.127Z,1025.48
2019-03-22T10:54:25.127Z,1025.41
2019-03-22T10:55:30.368Z,1025.38
2019-03-22T10:56:25.186Z,1025.34
2019-03-22T10:57:25.189Z,1025.48
2019-03-22T10:58:25.220Z,1025.48
2019-03-22T10:59:25.255Z,1025.48
2019-03-22T11:00:25.290Z,1025.50
2019-03-22T11:01:25.293Z,1025.51
2019-03-22T11:02:25.303Z,1025.52
2019-03-22T11:03:25.321Z,1025.56
2019-03-22T11:04:25.363Z,1025.54
2019-03-22T11:05:25.387Z,1025.65
2019-03-22T11:06:26.434Z,1025.61
2019-03-22T11:07:25.420Z,1025.56
2019-03-22T11:08:25.439Z,1025.58
2019-03-22T11:09:25.463Z,1025.58
2019-03-22T11:10:25.485Z,1025.47
2019-03-22T11:11:25.511Z,1025.56
2019-03-22T11:12:25.529Z,1025.42
2019-03-22T11:13:25.563Z,1025.34
2019-03-22T11:14:25.582Z,1025.27
2019-03-22T11:15:25.601Z,1025.26
2019-03-22T11:16:25.640Z,1025.25
2019-03-22T11:17:25.648Z,1025.28
2019-03-22T11:18:25.679Z,1025.14
2019-03-22T11:19:25.696Z,1025.13
2019-03-22T11:20:25.711Z,1024.97
2019-03-22T11:21:25.737Z,1025.07
2019-03-22T11:22:25.770Z,1024.96
2019-03-22T11:23:25.788Z,1024.96
2019-03-22T11:24:25.808Z,1024.94
2019-03-22T11:25:25.840Z,1024.91
2019-03-22T11:26:25.849Z,1024.96
2019-03-22T11:27:25.978Z,1024.96
2019-03-22T11:28:25.897Z,1024.89
2019-03-22T11:29:25.917Z,1024.91
2019-03-22T11:30:25.943Z,1024.92
2019-03-22T11:31:28.717Z,1024.88
2019-03-22T11:32:25.981Z,1024.84
2019-03-22T11:33:26.009Z,1024.86
2019-03-22T11:34:26.030Z,1024.83
2019-03-22T11:35:26.055Z,1024.82
2019-03-22T11:36:26.069Z,1024.85
2019-03-22T11:37:26.097Z,1024.84
2019-03-22T11:38:26.119Z,1024.84
2019-03-22T11:39:26.135Z,1024.83
2019-03-22T11:40:26.169Z,1024.93
2019-03-22T11:41:26.184Z,1024.89
2019-03-22T11:42:26.212Z,1025.01
2019-03-22T11:43:26.241Z,1024.99
2019-03-22T11:44:26.261Z,1024.95
2019-03-22T11:45:26.274Z,1024.87
2019-03-22T11:46:26.295Z,1024.97
2019-03-22T11:47:26.317Z,1025.01
2019-03-22T11:48:26.408Z,1024.88
2019-03-22T11:49:26.369Z,1024.92
2019-03-22T11:50:26.395Z,1024.97
2019-03-22T11:51:26.419Z,1026.06
2019-03-22T11:52:26.538Z,1025.59
2019-03-22T11:53:26.455Z,1025.25
2019-03-22T11:54:26.487Z,1025.61
2019-03-22T11:55:26.516Z,1025.35
2019-03-22T11:56:26.523Z,1025.06
2019-03-22T11:57:26.543Z,1025.42
2019-03-22T11:58:26.595Z,1025.81
2019-03-22T11:59:26.590Z,1025.71
2019-03-22T12:00:26.615Z,1024.90
2019-03-22T12:01:26.639Z,1025.35
2019-03-22T12:02:26.659Z,1025.39
2019-03-22T12:03:26.686Z,1025.02
2019-03-22T12:04:26.705Z,1024.79
2019-03-22T12:05:26.729Z,1024.81